Terminal Aerodrome Forecast
Issued by NWS Lake Charles, LA

Home | Current Version | Previous Version | Text Only | Print | Product List | Glossary On
Versions: 1 2 3 4 5 6 7 8 9 10 11 12 13 14 15 16 17
000
FTUS44 KLCH 261122
TAFLCH
TAF
KLCH 261122Z 2612/2712 VRB03KT 3SM BR OVC005
      TEMPO 2612/2614 1/4SM FG VV004
     FM261400 VRB03KT P6SM OVC008
     FM261600 16006KT P6SM SCT250
     FM270400 10006KT 4SM BR OVC005=

USA.gov is the U.S. government's official web portal to all federal, state and local government web resources and services.